Time;durP1;ratioP1;P1;durP2;ratioP2;P2;SDS_P1;SDS_P2;PMS_P1;PMS_P2;Temp;Humidity;BMP_temperature;BMP_pressure;BME280_temperature;BME280_humidity;BME280_pressure;Samples;Min_cycle;Max_cycle;Signal;HPM_P1;HPM_P2
2023/12/16 00:01:48;;;;;;;23.05;13.27;;;4.00;99.90;;;;;;5036059;28;20060;-63
2023/12/16 00:04:14;;;;;;;22.50;12.98;;;4.10;99.90;;;;;;5035520;28;20033;-63
2023/12/16 00:06:39;;;;;;;24.20;13.23;;;4.00;99.90;;;;;;5035877;28;20067;-63
2023/12/16 00:09:05;;;;;;;24.52;13.60;;;4.10;99.90;;;;;;5018578;28;20065;-63
2023/12/16 00:11:30;;;;;;;26.38;14.35;;;4.00;99.90;;;;;;5035772;28;20052;-63
2023/12/16 00:13:56;;;;;;;25.67;13.02;;;4.00;99.90;;;;;;5017957;28;20021;-63
2023/12/16 00:16:23;;;;;;;21.20;12.73;;;4.00;99.90;;;;;;5036246;28;20065;-63
2023/12/16 00:18:49;;;;;;;22.30;11.73;;;3.90;99.90;;;;;;5035679;28;20057;-63
2023/12/16 00:21:15;;;;;;;23.55;12.63;;;3.90;99.90;;;;;;5017826;28;20459;-63
2023/12/16 00:23:41;;;;;;;22.00;12.05;;;3.90;99.90;;;;;;5017899;28;20025;-63
2023/12/16 00:26:06;;;;;;;23.80;12.68;;;4.00;99.90;;;;;;5017679;28;20026;-63
2023/12/16 00:28:32;;;;;;;21.20;11.15;;;3.90;99.90;;;;;;5035671;28;20032;-64
2023/12/16 00:30:58;;;;;;;23.45;11.82;;;3.90;99.90;;;;;;5018509;28;20135;-63
2023/12/16 00:33:23;;;;;;;22.02;11.05;;;4.10;99.90;;;;;;5035370;28;20034;-64
2023/12/16 00:35:49;;;;;;;19.65;11.93;;;4.00;99.90;;;;;;5035315;28;20064;-63
2023/12/16 00:38:14;;;;;;;22.92;12.13;;;4.00;99.90;;;;;;5035069;28;20025;-64
2023/12/16 00:40:40;;;;;;;20.05;11.13;;;4.00;99.90;;;;;;5034945;28;20116;-63
2023/12/16 00:43:06;;;;;;;21.33;11.55;;;4.10;99.90;;;;;;5017420;28;20033;-64
2023/12/16 00:45:31;;;;;;;22.58;11.68;;;4.10;99.90;;;;;;5035118;28;20076;-64
2023/12/16 00:47:57;;;;;;;21.73;12.52;;;4.10;99.90;;;;;;5034793;28;20033;-64
2023/12/16 00:50:22;;;;;;;21.67;11.77;;;4.10;99.90;;;;;;5034953;28;20029;-64
2023/12/16 00:52:48;;;;;;;21.58;11.23;;;4.20;99.90;;;;;;5017066;28;20077;-64
2023/12/16 00:55:14;;;;;;;24.17;12.68;;;4.20;99.90;;;;;;5017249;28;20029;-64
2023/12/16 00:57:40;;;;;;;20.88;12.48;;;4.20;99.90;;;;;;5017224;28;20456;-64
2023/12/16 01:00:07;;;;;;;25.77;13.48;;;4.40;99.90;;;;;;5034547;28;20390;-64
2023/12/16 01:02:32;;;;;;;24.38;12.48;;;4.20;99.90;;;;;;5017022;28;20044;-64
2023/12/16 01:04:58;;;;;;;26.63;13.48;;;4.20;99.90;;;;;;5035036;28;20034;-64
2023/12/16 01:07:24;;;;;;;22.42;13.13;;;4.20;99.90;;;;;;5034822;28;20078;-64
2023/12/16 01:09:51;;;;;;;26.35;14.05;;;4.30;99.90;;;;;;5016839;28;20041;-64
2023/12/16 01:12:16;;;;;;;22.42;12.70;;;4.30;99.90;;;;;;5034635;28;20026;-64
2023/12/16 01:14:42;;;;;;;24.15;13.82;;;4.30;99.90;;;;;;5033706;28;20441;-64
2023/12/16 01:17:08;;;;;;;24.40;13.60;;;4.30;99.90;;;;;;5016776;28;20026;-64
2023/12/16 01:19:33;;;;;;;24.67;13.30;;;4.40;99.90;;;;;;5016839;28;20137;-64
2023/12/16 01:21:59;;;;;;;22.48;12.73;;;4.40;99.90;;;;;;5034629;28;20093;-64
2023/12/16 01:24:25;;;;;;;23.58;12.60;;;4.40;99.90;;;;;;5034550;28;20028;-66
2023/12/16 01:26:50;;;;;;;22.40;12.88;;;4.40;99.90;;;;;;5034438;28;20113;-64
2023/12/16 01:29:17;;;;;;;23.80;12.85;;;4.40;99.90;;;;;;5016327;28;20045;-63
2023/12/16 01:31:42;;;;;;;22.20;11.65;;;4.50;99.90;;;;;;5016734;28;20459;-63
2023/12/16 01:34:08;;;;;;;21.38;12.98;;;4.50;99.90;;;;;;5034300;28;20083;-64
2023/12/16 01:36:34;;;;;;;21.17;11.52;;;4.50;99.90;;;;;;5034650;28;20433;-64
2023/12/16 01:38:59;;;;;;;21.63;12.75;;;4.50;99.90;;;;;;5035316;28;20025;-64
2023/12/16 01:41:25;;;;;;;27.58;12.95;;;4.50;99.90;;;;;;5034523;28;20079;-64
2023/12/16 01:43:51;;;;;;;23.40;12.48;;;4.50;99.90;;;;;;5034683;28;20025;-65
2023/12/16 01:46:18;;;;;;;19.65;11.75;;;4.50;99.90;;;;;;5016259;28;20459;-64
2023/12/16 01:48:45;;;;;;;20.23;11.15;;;4.60;99.90;;;;;;5033921;28;20034;-63
2023/12/16 01:51:13;;;;;;;22.63;11.70;;;4.60;99.90;;;;;;5016139;28;20457;-63
2023/12/16 01:53:40;;;;;;;16.90;10.68;;;4.50;99.90;;;;;;5016193;28;20025;-64
2023/12/16 01:56:07;;;;;;;19.85;11.63;;;4.60;99.90;;;;;;5033919;28;20037;-63
2023/12/16 01:58:35;;;;;;;20.17;11.77;;;4.60;99.90;;;;;;5033921;28;20029;-63
2023/12/16 02:01:01;;;;;;;22.45;11.57;;;4.60;99.90;;;;;;5033851;28;20052;-63
2023/12/16 02:03:28;;;;;;;18.48;11.98;;;4.60;99.90;;;;;;5016288;28;20457;-63
2023/12/16 02:05:53;;;;;;;18.38;11.70;;;4.60;99.90;;;;;;5016079;28;20526;-63
2023/12/16 02:08:19;;;;;;;20.88;11.70;;;4.60;99.90;;;;;;5034077;28;20068;-64
2023/12/16 02:10:45;;;;;;;22.00;13.02;;;4.60;99.90;;;;;;5033766;28;20034;-65
2023/12/16 02:13:10;;;;;;;19.50;12.52;;;4.60;99.90;;;;;;5033716;28;20132;-64
2023/12/16 02:15:36;;;;;;;19.83;11.52;;;4.50;99.90;;;;;;5033664;28;20022;-64
2023/12/16 02:18:02;;;;;;;19.45;12.60;;;4.50;99.90;;;;;;5033902;28;20022;-64
2023/12/16 02:20:27;;;;;;;21.08;11.93;;;4.50;99.90;;;;;;5033924;28;20033;-64
2023/12/16 02:22:54;;;;;;;23.15;12.30;;;4.60;99.90;;;;;;5015908;28;20056;-64
2023/12/16 02:25:19;;;;;;;19.17;11.73;;;4.60;99.90;;;;;;5016356;28;20041;-64
2023/12/16 02:27:46;;;;;;;24.27;12.02;;;4.60;99.90;;;;;;5036950;28;20038;-64
2023/12/16 02:30:12;;;;;;;19.27;11.35;;;4.60;99.90;;;;;;5019898;28;20056;-64
2023/12/16 02:32:38;;;;;;;20.73;11.90;;;4.70;99.90;;;;;;5037617;28;20025;-64
2023/12/16 02:35:04;;;;;;;17.85;11.98;;;4.60;99.90;;;;;;5037613;28;20033;-63
2023/12/16 02:37:30;;;;;;;21.67;12.30;;;4.70;99.90;;;;;;5037702;28;20029;-64
2023/12/16 02:39:55;;;;;;;22.55;11.95;;;4.70;99.90;;;;;;5037626;28;20360;-64
2023/12/16 02:42:21;;;;;;;18.58;11.88;;;4.70;99.90;;;;;;5019648;28;20064;-64
2023/12/16 02:44:47;;;;;;;20.45;12.75;;;4.70;99.90;;;;;;5019630;28;20041;-63
2023/12/16 02:47:13;;;;;;;19.35;11.75;;;4.70;99.90;;;;;;5037655;28;20031;-63
2023/12/16 02:49:38;;;;;;;21.63;12.15;;;4.80;99.90;;;;;;5019485;28;20044;-63
2023/12/16 02:52:04;;;;;;;19.55;11.65;;;4.70;99.90;;;;;;5037246;28;20048;-63
2023/12/16 02:54:30;;;;;;;19.52;11.45;;;4.70;99.90;;;;;;5037188;28;20080;-63
2023/12/16 02:56:56;;;;;;;19.60;11.80;;;4.70;99.90;;;;;;5019804;28;20033;-63
2023/12/16 02:59:22;;;;;;;20.15;12.00;;;4.60;99.90;;;;;;5019361;28;20061;-63
2023/12/16 03:01:47;;;;;;;17.42;10.98;;;4.60;99.90;;;;;;5036858;28;20549;-63
2023/12/16 03:04:13;;;;;;;15.98;10.68;;;4.60;99.90;;;;;;5019184;28;20100;-63
2023/12/16 03:06:45;;;;;;;17.90;11.25;;;4.70;99.90;;;;;;5019208;28;20022;-64
2023/12/16 03:09:12;;;;;;;16.25;10.25;;;4.70;99.90;;;;;;5037396;28;20116;-63
2023/12/16 03:11:38;;;;;;;18.92;11.38;;;4.70;99.90;;;;;;5019762;28;20359;-63
2023/12/16 03:14:04;;;;;;;16.73;9.77;;;4.70;99.90;;;;;;5037419;28;20065;-63
2023/12/16 03:16:32;;;;;;;15.30;9.90;;;4.70;99.90;;;;;;5019473;28;20057;-63
2023/12/16 03:18:57;;;;;;;14.10;9.50;;;4.70;99.90;;;;;;5037086;28;20079;-63
2023/12/16 03:21:23;;;;;;;14.93;9.32;;;4.70;99.90;;;;;;5019420;28;20029;-63
2023/12/16 03:23:49;;;;;;;17.10;11.05;;;4.70;99.90;;;;;;5037277;28;20037;-63
2023/12/16 03:26:14;;;;;;;18.58;9.95;;;4.70;99.90;;;;;;5037326;28;20032;-62
2023/12/16 03:28:40;;;;;;;13.68;9.38;;;4.80;99.90;;;;;;5037260;28;20029;-63
2023/12/16 03:31:05;;;;;;;17.58;10.10;;;4.70;99.90;;;;;;5037243;28;20017;-63
2023/12/16 03:33:31;;;;;;;15.13;9.55;;;4.70;99.90;;;;;;5036758;28;20021;-63
2023/12/16 03:35:57;;;;;;;17.48;10.27;;;4.70;99.90;;;;;;5018764;28;20045;-63
2023/12/16 03:38:23;;;;;;;16.15;9.77;;;4.70;99.90;;;;;;5018169;28;20029;-63
2023/12/16 03:40:49;;;;;;;16.80;9.98;;;4.70;99.90;;;;;;5019021;28;20029;-63
2023/12/16 03:43:16;;;;;;;15.77;9.95;;;4.70;99.90;;;;;;5036265;28;20018;-63
2023/12/16 03:45:41;;;;;;;14.10;9.02;;;4.80;99.90;;;;;;5018507;28;20025;-63
2023/12/16 03:48:07;;;;;;;17.35;10.07;;;4.70;99.90;;;;;;5018501;28;20057;-63
2023/12/16 03:50:33;;;;;;;15.13;10.18;;;4.70;99.90;;;;;;5036389;28;20112;-63
2023/12/16 03:52:58;;;;;;;16.02;9.75;;;4.70;99.90;;;;;;5018380;28;20193;-63
2023/12/16 03:55:24;;;;;;;13.25;8.75;;;4.80;99.90;;;;;;5036150;28;20025;-63
2023/12/16 03:57:50;;;;;;;16.48;10.18;;;4.70;99.90;;;;;;5035787;28;20067;-63
2023/12/16 04:00:16;;;;;;;16.98;9.68;;;4.70;99.90;;;;;;5036074;28;20043;-63
2023/12/16 04:02:41;;;;;;;16.00;10.18;;;4.60;99.90;;;;;;5036150;28;20030;-63
2023/12/16 04:05:08;;;;;;;19.35;10.35;;;4.60;99.90;;;;;;5018372;28;20383;-64
2023/12/16 04:07:33;;;;;;;15.80;9.93;;;4.60;99.90;;;;;;5036300;28;20057;-64
2023/12/16 04:10:00;;;;;;;15.45;10.23;;;4.50;99.90;;;;;;5036382;28;20195;-63
2023/12/16 04:12:25;;;;;;;16.08;9.57;;;4.50;99.90;;;;;;5036043;28;20026;-63
2023/12/16 04:14:51;;;;;;;18.38;9.85;;;4.40;99.90;;;;;;5035711;28;20018;-63
2023/12/16 04:17:16;;;;;;;14.20;9.50;;;4.40;99.90;;;;;;5035573;28;20022;-64
2023/12/16 04:19:52;;;;;;;14.20;8.95;;;4.40;99.90;;;;;;5017926;28;20041;-63
2023/12/16 04:22:18;;;;;;;15.13;10.30;;;4.40;99.90;;;;;;5017792;28;20031;-63
2023/12/16 04:24:44;;;;;;;16.30;10.52;;;4.40;99.90;;;;;;5035627;28;20087;-63
2023/12/16 04:27:10;;;;;;;18.90;10.68;;;4.40;99.90;;;;;;5035292;28;20075;-63
2023/12/16 04:29:36;;;;;;;20.92;10.02;;;4.40;99.90;;;;;;5035192;28;20498;-64
2023/12/16 04:32:02;;;;;;;23.23;10.45;;;4.40;99.90;;;;;;5017709;28;20430;-63
2023/12/16 04:34:27;;;;;;;18.80;11.30;;;4.30;99.90;;;;;;5035355;28;20462;-63
2023/12/16 04:36:53;;;;;;;16.35;9.90;;;4.30;99.90;;;;;;5017537;28;20030;-63
2023/12/16 04:39:18;;;;;;;17.88;9.75;;;4.30;99.90;;;;;;5035254;28;20083;-64
2023/12/16 04:41:44;;;;;;;18.58;10.73;;;4.30;99.90;;;;;;5017617;28;20360;-63
2023/12/16 04:44:10;;;;;;;19.67;10.90;;;4.30;99.90;;;;;;5035185;28;20040;-63
2023/12/16 04:46:35;;;;;;;17.55;10.05;;;4.30;99.90;;;;;;5035379;28;20057;-63
2023/12/16 04:49:01;;;;;;;21.00;10.32;;;4.20;99.90;;;;;;5034110;28;20064;-63
2023/12/16 04:51:27;;;;;;;17.13;10.73;;;4.10;99.90;;;;;;5034617;28;20110;-63
2023/12/16 04:53:53;;;;;;;20.50;10.60;;;4.10;99.90;;;;;;5034713;28;20425;-63
2023/12/16 04:56:18;;;;;;;20.48;11.43;;;4.00;99.90;;;;;;5034961;28;20471;-63
2023/12/16 04:58:44;;;;;;;21.23;11.35;;;4.00;99.90;;;;;;5034885;28;20029;-64
2023/12/16 05:01:10;;;;;;;17.38;10.85;;;4.00;99.90;;;;;;5017797;28;20095;-63
2023/12/16 05:03:35;;;;;;;18.75;10.88;;;3.90;99.90;;;;;;5018134;28;20029;-63
2023/12/16 05:06:01;;;;;;;19.63;11.50;;;3.90;99.90;;;;;;5017552;28;20057;-65
2023/12/16 05:08:27;;;;;;;21.63;10.93;;;3.90;99.90;;;;;;5035456;28;20104;-64
2023/12/16 05:10:52;;;;;;;18.95;11.57;;;3.90;99.90;;;;;;5034767;28;20105;-64
2023/12/16 05:13:18;;;;;;;24.55;11.82;;;4.00;99.90;;;;;;5034615;28;20037;-63
2023/12/16 05:15:44;;;;;;;19.73;11.57;;;4.00;99.90;;;;;;5034578;28;20033;-63
2023/12/16 05:18:09;;;;;;;20.75;11.25;;;4.10;99.90;;;;;;5016859;28;20030;-63
2023/12/16 05:20:35;;;;;;;20.48;11.32;;;4.00;99.90;;;;;;5034593;28;20451;-63
2023/12/16 05:23:02;;;;;;;21.52;11.88;;;4.00;99.90;;;;;;5034494;28;20380;-63
2023/12/16 05:25:29;;;;;;;22.33;11.57;;;4.10;99.90;;;;;;5034406;28;20033;-64
2023/12/16 05:27:55;;;;;;;20.50;12.10;;;4.10;99.90;;;;;;5034981;28;20026;-63
2023/12/16 05:30:21;;;;;;;19.27;10.82;;;4.20;99.90;;;;;;5034003;28;20527;-64
2023/12/16 05:32:46;;;;;;;19.13;11.43;;;4.20;99.90;;;;;;5016621;28;20029;-63
2023/12/16 05:35:12;;;;;;;17.67;11.18;;;4.20;99.90;;;;;;5034509;28;20053;-63
2023/12/16 05:37:37;;;;;;;22.50;11.65;;;4.20;99.90;;;;;;5034186;28;20386;-63
2023/12/16 05:40:03;;;;;;;21.00;11.40;;;4.30;99.90;;;;;;5016163;28;20463;-63
2023/12/16 05:42:29;;;;;;;18.73;11.50;;;4.30;99.90;;;;;;5016443;28;20029;-63
2023/12/16 05:44:55;;;;;;;20.33;11.45;;;4.30;99.90;;;;;;5033778;28;20532;-63
2023/12/16 05:47:21;;;;;;;15.77;10.13;;;4.30;99.90;;;;;;5034323;28;20059;-64
2023/12/16 05:49:46;;;;;;;21.20;12.25;;;4.30;99.90;;;;;;5016166;28;20044;-63
2023/12/16 05:52:12;;;;;;;20.98;12.75;;;4.30;99.90;;;;;;5034149;28;20067;-63
2023/12/16 05:54:38;;;;;;;20.67;12.63;;;4.30;99.90;;;;;;5016277;28;20026;-63
2023/12/16 05:57:04;;;;;;;17.33;11.40;;;4.40;99.90;;;;;;5034022;28;20030;-63
2023/12/16 05:59:29;;;;;;;19.58;11.57;;;4.30;99.90;;;;;;5016393;28;20116;-63
2023/12/16 06:01:55;;;;;;;19.08;11.88;;;4.40;99.90;;;;;;5033756;28;20108;-63
2023/12/16 06:04:22;;;;;;;19.92;11.75;;;4.30;99.90;;;;;;5016263;28;20065;-63
2023/12/16 06:06:47;;;;;;;17.30;11.02;;;4.30;99.90;;;;;;5033790;28;20033;-63
2023/12/16 06:09:13;;;;;;;19.92;11.40;;;4.30;99.90;;;;;;5015994;28;20043;-63
2023/12/16 06:11:39;;;;;;;18.83;11.52;;;4.30;99.90;;;;;;5033699;28;20025;-63
2023/12/16 06:14:04;;;;;;;19.95;11.30;;;4.30;99.90;;;;;;5016344;28;20026;-63
2023/12/16 06:16:30;;;;;;;19.52;11.30;;;4.40;99.90;;;;;;5016165;28;20079;-63
2023/12/16 06:18:56;;;;;;;20.42;11.52;;;4.40;99.90;;;;;;5016310;28;20040;-63
2023/12/16 06:21:21;;;;;;;21.65;11.80;;;4.40;99.90;;;;;;5015928;28;20028;-63
2023/12/16 06:23:47;;;;;;;17.10;11.43;;;4.40;99.90;;;;;;5033795;28;20021;-63
2023/12/16 06:26:12;;;;;;;21.83;12.70;;;4.40;99.90;;;;;;5015949;28;20453;-63
2023/12/16 06:28:38;;;;;;;17.52;11.57;;;4.40;99.90;;;;;;5016073;28;20025;-63
2023/12/16 06:31:04;;;;;;;18.90;11.93;;;4.50;99.90;;;;;;5033648;28;20025;-63
2023/12/16 06:33:29;;;;;;;17.95;10.80;;;4.50;99.90;;;;;;5033562;28;20563;-63
2023/12/16 06:35:55;;;;;;;17.13;11.15;;;4.50;99.90;;;;;;5033775;28;20390;-63
2023/12/16 06:38:21;;;;;;;16.70;10.77;;;4.60;99.90;;;;;;5015862;28;20025;-63
2023/12/16 06:40:46;;;;;;;21.60;11.93;;;4.60;99.90;;;;;;5033203;28;20034;-63
2023/12/16 06:43:12;;;;;;;19.85;12.02;;;4.60;99.90;;;;;;5033810;28;20026;-63
2023/12/16 06:45:38;;;;;;;19.02;12.00;;;4.70;99.90;;;;;;5015973;28;20022;-63
2023/12/16 06:48:04;;;;;;;18.40;11.05;;;4.60;99.90;;;;;;5033633;28;20025;-63
2023/12/16 06:50:30;;;;;;;17.33;10.90;;;4.60;99.90;;;;;;5015663;28;20041;-63
2023/12/16 06:52:55;;;;;;;17.52;10.82;;;4.70;99.90;;;;;;5033586;28;20066;-63
2023/12/16 06:55:21;;;;;;;19.25;10.95;;;4.70;99.90;;;;;;5033648;28;20041;-64
2023/12/16 06:57:46;;;;;;;17.60;11.20;;;4.70;99.90;;;;;;5015731;28;20131;-63
2023/12/16 07:00:13;;;;;;;18.08;10.85;;;4.80;99.90;;;;;;5033053;28;20034;-64
2023/12/16 07:02:41;;;;;;;17.95;11.20;;;4.80;99.90;;;;;;5033311;28;20033;-63
2023/12/16 07:05:10;;;;;;;18.25;10.15;;;4.80;99.90;;;;;;5033001;28;20025;-63
2023/12/16 07:07:35;;;;;;;18.90;11.23;;;4.90;99.90;;;;;;5015557;28;20029;-63
2023/12/16 07:10:01;;;;;;;18.27;10.30;;;4.90;99.90;;;;;;5033131;28;20052;-64
2023/12/16 07:12:27;;;;;;;17.10;10.63;;;4.90;99.90;;;;;;5016257;28;20036;-63
2023/12/16 07:14:53;;;;;;;14.75;10.00;;;4.90;99.90;;;;;;5031821;28;20104;-63
2023/12/16 07:17:19;;;;;;;18.48;10.27;;;4.90;99.90;;;;;;5028226;28;20105;-63
2023/12/16 07:19:44;;;;;;;18.30;9.68;;;4.90;99.90;;;;;;5023460;28;20451;-63
2023/12/16 07:22:10;;;;;;;18.20;9.98;;;4.90;99.90;;;;;;5016986;28;20030;-63
2023/12/16 07:24:35;;;;;;;17.45;10.30;;;5.00;99.90;;;;;;4999323;28;20034;-63
2023/12/16 07:27:01;;;;;;;17.27;9.90;;;5.00;99.90;;;;;;4999259;28;20061;-63
2023/12/16 07:29:27;;;;;;;14.82;8.98;;;5.00;99.90;;;;;;5016739;28;20034;-63
2023/12/16 07:31:52;;;;;;;15.48;10.52;;;5.10;99.90;;;;;;5016774;28;20050;-63
2023/12/16 07:34:18;;;;;;;17.30;9.48;;;5.10;99.90;;;;;;4999113;28;20030;-63
2023/12/16 07:36:44;;;;;;;14.82;9.20;;;5.10;99.90;;;;;;4999063;28;20026;-62
2023/12/16 07:39:10;;;;;;;14.48;8.90;;;5.10;99.90;;;;;;5016962;28;20038;-63
2023/12/16 07:41:35;;;;;;;17.42;8.75;;;5.20;99.90;;;;;;4999061;28;20061;-63
2023/12/16 07:44:01;;;;;;;13.15;8.82;;;5.20;99.90;;;;;;5016577;28;20119;-63
2023/12/16 07:46:27;;;;;;;11.88;7.75;;;5.30;99.90;;;;;;5016661;28;20026;-63
2023/12/16 07:48:53;;;;;;;16.88;8.60;;;5.40;99.90;;;;;;4999043;28;20038;-63
2023/12/16 07:51:25;;;;;;;11.60;7.75;;;5.40;99.90;;;;;;4998703;28;20184;-63
2023/12/16 07:53:52;;;;;;;11.57;7.88;;;5.50;99.90;;;;;;4999443;28;20348;-63
2023/12/16 07:56:21;;;;;;;11.88;7.13;;;5.50;99.90;;;;;;4999098;28;20029;-63
2023/12/16 07:58:47;;;;;;;11.80;7.57;;;5.60;99.90;;;;;;5016518;28;20022;-63
2023/12/16 08:01:14;;;;;;;10.88;7.22;;;5.60;99.90;;;;;;5016264;28;20032;-64
2023/12/16 08:03:40;;;;;;;13.50;7.40;;;5.60;99.90;;;;;;5016604;28;20026;-63
2023/12/16 08:06:06;;;;;;;12.93;6.72;;;5.60;99.90;;;;;;5016256;28;20470;-63
2023/12/16 08:08:32;;;;;;;14.73;7.72;;;5.70;99.90;;;;;;4998561;28;20029;-64
2023/12/16 08:10:57;;;;;;;13.57;7.78;;;5.70;99.90;;;;;;4998882;28;20038;-63
2023/12/16 08:13:23;;;;;;;12.32;7.80;;;5.60;99.90;;;;;;5016030;28;20385;-63
2023/12/16 08:15:48;;;;;;;13.65;7.15;;;5.60;99.90;;;;;;5016350;28;20026;-66
2023/12/16 08:18:15;;;;;;;12.00;6.85;;;5.60;99.90;;;;;;5016966;28;20025;-63
2023/12/16 08:20:41;;;;;;;11.05;6.90;;;5.60;99.90;;;;;;5017056;28;20038;-63
2023/12/16 08:23:08;;;;;;;9.75;6.50;;;5.60;99.90;;;;;;5016297;28;20030;-68
2023/12/16 08:25:37;;;;;;;10.13;7.05;;;5.60;99.90;;;;;;5016029;28;20029;-63
2023/12/16 08:28:03;;;;;;;10.85;6.65;;;5.60;99.90;;;;;;5015471;28;20029;-63
2023/12/16 08:30:28;;;;;;;13.82;6.35;;;5.60;99.90;;;;;;5015282;28;20049;-63
2023/12/16 08:32:54;;;;;;;11.45;7.32;;;5.70;99.90;;;;;;5015671;28;20026;-62
2023/12/16 08:35:19;;;;;;;10.05;6.40;;;5.70;99.90;;;;;;4998055;28;20030;-63
2023/12/16 08:37:45;;;;;;;10.38;5.72;;;5.80;99.90;;;;;;5015696;28;20115;-63
2023/12/16 08:40:11;;;;;;;12.15;6.15;;;5.80;99.90;;;;;;5015766;28;20030;-63
2023/12/16 08:42:41;;;;;;;12.02;6.45;;;5.80;99.90;;;;;;5015488;28;20084;-62
2023/12/16 08:45:07;;;;;;;13.20;6.55;;;5.80;99.90;;;;;;5015222;28;20117;-62
2023/12/16 08:47:32;;;;;;;10.82;6.07;;;5.80;99.90;;;;;;5015414;28;20116;-64
2023/12/16 08:49:58;;;;;;;10.70;6.25;;;5.80;99.90;;;;;;4998436;28;20494;-63
2023/12/16 08:52:24;;;;;;;11.20;6.70;;;5.90;99.90;;;;;;4997630;28;20505;-63
2023/12/16 08:54:49;;;;;;;9.05;6.30;;;5.90;99.90;;;;;;5015688;28;20498;-63
2023/12/16 08:57:15;;;;;;;9.32;6.55;;;5.90;99.90;;;;;;4998384;28;20092;-65
2023/12/16 08:59:40;;;;;;;9.32;6.38;;;5.90;99.90;;;;;;5015199;28;20040;-67
2023/12/16 09:02:06;;;;;;;12.63;6.38;;;6.00;99.90;;;;;;5015511;28;20118;-63
2023/12/16 09:04:32;;;;;;;9.43;6.03;;;6.00;99.90;;;;;;5015612;28;20459;-62
2023/12/16 09:06:58;;;;;;;15.45;6.97;;;6.00;99.90;;;;;;5015371;28;20534;-63
2023/12/16 09:09:23;;;;;;;10.23;6.28;;;6.10;99.90;;;;;;4997445;28;20480;-63
2023/12/16 09:11:49;;;;;;;10.65;6.82;;;6.10;99.90;;;;;;5015238;28;20030;-63
2023/12/16 09:14:15;;;;;;;9.45;5.88;;;6.10;99.90;;;;;;4997448;28;20156;-62
2023/12/16 09:16:40;;;;;;;12.13;6.72;;;6.20;99.90;;;;;;5014834;28;20127;-63
2023/12/16 09:19:07;;;;;;;10.43;6.13;;;6.20;99.90;;;;;;4997254;28;20026;-63
2023/12/16 09:21:33;;;;;;;8.40;6.13;;;6.30;99.90;;;;;;4997133;28;20467;-63
2023/12/16 09:23:59;;;;;;;14.25;6.75;;;6.30;99.90;;;;;;5014424;28;20395;-56
2023/12/16 09:26:25;;;;;;;9.52;6.55;;;6.50;99.90;;;;;;5014388;28;20037;-57
2023/12/16 09:28:51;;;;;;;8.50;5.95;;;6.70;99.90;;;;;;5014553;28;20061;-57
2023/12/16 09:31:17;;;;;;;10.57;5.82;;;6.90;99.90;;;;;;5015193;28;20070;-57
2023/12/16 09:33:44;;;;;;;8.95;6.05;;;7.10;99.90;;;;;;5014502;28;20050;-64
2023/12/16 09:36:13;;;;;;;10.23;5.68;;;7.10;99.90;;;;;;5014273;28;20053;-63
2023/12/16 09:38:42;;;;;;;8.32;5.88;;;7.00;99.90;;;;;;4997268;28;20394;-63
2023/12/16 09:41:22;;;;;;;11.55;6.72;;;6.90;99.90;;;;;;4996996;28;20041;-63
2023/12/16 09:43:54;;;;;;;10.07;6.03;;;6.90;99.90;;;;;;5014497;28;20034;-63
2023/12/16 09:46:24;;;;;;;13.70;6.25;;;6.90;99.90;;;;;;4996828;28;20467;-62
2023/12/16 09:48:53;;;;;;;8.80;6.03;;;7.00;99.90;;;;;;5014487;28;20025;-63
2023/12/16 09:51:20;;;;;;;9.88;6.53;;;7.10;99.90;;;;;;5014039;28;20050;-63
2023/12/16 09:53:46;;;;;;;10.70;6.35;;;7.10;99.90;;;;;;5013952;28;20038;-63
2023/12/16 09:56:13;;;;;;;14.27;7.03;;;7.20;99.90;;;;;;5014238;28;20026;-63
2023/12/16 09:58:43;;;;;;;9.95;6.72;;;7.30;99.90;;;;;;4996861;28;20076;-63
2023/12/16 10:01:10;;;;;;;13.00;7.22;;;7.40;99.90;;;;;;5014386;28;20041;-63
2023/12/16 10:03:41;;;;;;;8.93;6.03;;;7.40;99.90;;;;;;4997486;28;20037;-63
2023/12/16 10:06:09;;;;;;;15.10;7.45;;;7.40;99.90;;;;;;4997566;28;20053;-63
2023/12/16 10:08:36;;;;;;;9.27;6.87;;;7.50;99.90;;;;;;5015280;28;20530;-63
2023/12/16 10:11:03;;;;;;;11.43;6.68;;;7.50;99.90;;;;;;5014772;28;20049;-64
2023/12/16 10:13:31;;;;;;;11.68;6.63;;;7.70;99.90;;;;;;5014624;28;20028;-63
2023/12/16 10:15:57;;;;;;;12.80;6.97;;;7.70;99.90;;;;;;5014344;28;20477;-63
2023/12/16 10:18:27;;;;;;;9.68;6.32;;;7.80;99.90;;;;;;5014256;28;20493;-63
2023/12/16 10:20:55;;;;;;;14.13;7.25;;;7.90;99.90;;;;;;5014038;28;20030;-63
2023/12/16 10:23:22;;;;;;;14.77;7.13;;;8.00;99.90;;;;;;4996288;28;20033;-63
2023/12/16 10:25:49;;;;;;;10.27;6.88;;;8.10;99.90;;;;;;5013896;28;20022;-63
2023/12/16 10:28:14;;;;;;;11.13;6.22;;;8.00;99.90;;;;;;4996706;28;20032;-63
2023/12/16 10:30:41;;;;;;;11.75;7.20;;;8.00;99.90;;;;;;5013884;28;20038;-63
2023/12/16 10:33:09;;;;;;;16.58;7.40;;;8.10;99.90;;;;;;5013856;28;20022;-63
2023/12/16 10:35:36;;;;;;;11.35;6.82;;;8.10;99.90;;;;;;5014043;28;20026;-63
2023/12/16 10:38:02;;;;;;;11.13;7.13;;;8.00;99.90;;;;;;5013839;28;20068;-63
2023/12/16 10:40:28;;;;;;;12.43;6.07;;;7.90;99.90;;;;;;5013648;28;20494;-64
2023/12/16 10:42:54;;;;;;;11.80;7.10;;;8.10;99.90;;;;;;4996259;28;20069;-63
2023/12/16 10:45:20;;;;;;;14.77;7.35;;;8.40;99.90;;;;;;5013475;28;20053;-63
2023/12/16 10:47:49;;;;;;;10.27;6.68;;;8.70;99.90;;;;;;5014941;28;20384;-64
2023/12/16 10:50:15;;;;;;;9.57;6.72;;;9.20;99.90;;;;;;5017442;28;20045;-64
2023/12/16 10:52:51;;;;;;;11.00;6.10;;;9.40;99.90;;;;;;4999732;28;20546;-63
2023/12/16 10:55:36;;;;;;;8.93;6.63;;;10.50;99.90;;;;;;5017617;28;20033;-64
2023/12/16 10:58:23;;;;;;;7.80;5.63;;;11.80;99.90;;;;;;5017535;28;20498;-63
2023/12/16 11:00:54;;;;;;;7.93;5.85;;;12.60;98.10;;;;;;4999755;28;20053;-63
2023/12/16 11:03:41;;;;;;;10.82;6.57;;;12.10;96.70;;;;;;5017777;28;20525;-63
2023/12/16 11:06:12;;;;;;;8.80;5.43;;;11.70;97.10;;;;;;4999726;28;20571;-63
2023/12/16 11:08:39;;;;;;;9.32;5.97;;;12.30;97.30;;;;;;5017141;28;20030;-63
2023/12/16 11:11:06;;;;;;;7.45;5.00;;;13.10;94.90;;;;;;5016861;28;20427;-63
2023/12/16 11:13:32;;;;;;;13.05;5.55;;;13.50;93.50;;;;;;5017092;28;20026;-64
2023/12/16 11:16:15;;;;;;;7.75;5.47;;;13.70;92.90;;;;;;4999589;28;20383;-63
2023/12/16 11:18:44;;;;;;;9.63;5.57;;;14.00;91.80;;;;;;5016994;28;20031;-63
2023/12/16 11:21:13;;;;;;;8.73;5.03;;;14.30;90.50;;;;;;4999192;28;20025;-63
2023/12/16 11:23:45;;;;;;;7.65;4.90;;;14.10;90.20;;;;;;5017012;28;20049;-63
2023/12/16 11:26:11;;;;;;;6.68;5.43;;;14.50;89.00;;;;;;5016740;28;20064;-63
2023/12/16 11:28:37;;;;;;;6.43;4.85;;;14.50;87.60;;;;;;4999804;28;20030;-63
2023/12/16 11:31:03;;;;;;;6.90;5.88;;;14.10;86.40;;;;;;4998997;28;20099;-63
2023/12/16 11:33:46;;;;;;;9.52;6.22;;;14.20;87.10;;;;;;5016385;28;20448;-63
2023/12/16 11:36:15;;;;;;;10.50;6.32;;;14.30;87.50;;;;;;4998839;28;20467;-63
2023/12/16 11:38:43;;;;;;;10.32;6.47;;;14.30;87.30;;;;;;5016505;28;20038;-64
2023/12/16 11:41:40;;;;;;;8.23;6.15;;;14.00;87.20;;;;;;5016794;28;20045;-63
2023/12/16 11:44:08;;;;;;;8.23;6.00;;;13.90;87.60;;;;;;4999003;28;20026;-63
2023/12/16 11:46:42;;;;;;;7.07;5.97;;;14.20;87.10;;;;;;4998741;28;20416;-63
2023/12/16 11:49:14;;;;;;;10.27;6.80;;;14.30;86.80;;;;;;4998417;28;20038;-63
2023/12/16 11:51:40;;;;;;;9.52;6.20;;;14.20;86.70;;;;;;5016366;28;20128;-63
2023/12/16 11:54:07;;;;;;;8.95;6.32;;;14.20;87.20;;;;;;4999105;28;20375;-64
2023/12/16 11:56:34;;;;;;;11.10;6.35;;;14.20;86.00;;;;;;5016171;28;20108;-64
2023/12/16 11:59:01;;;;;;;9.68;6.32;;;13.80;87.00;;;;;;5015805;28;20037;-64
2023/12/16 12:01:27;;;;;;;8.85;6.35;;;13.80;87.10;;;;;;5015832;28;20491;-63
2023/12/16 12:03:56;;;;;;;9.43;6.28;;;14.10;87.30;;;;;;5016115;28;20053;-63
2023/12/16 12:06:23;;;;;;;8.43;6.40;;;14.40;86.10;;;;;;4998396;28;20514;-64
2023/12/16 12:08:48;;;;;;;8.43;6.68;;;14.50;85.80;;;;;;5015891;28;20062;-64
2023/12/16 12:11:18;;;;;;;8.45;5.72;;;14.60;85.20;;;;;;5016278;28;20061;-64
2023/12/16 12:13:44;;;;;;;11.80;6.20;;;14.80;85.00;;;;;;4998248;28;20030;-64
2023/12/16 12:16:12;;;;;;;7.03;5.82;;;14.90;84.10;;;;;;5015811;28;20100;-64
2023/12/16 12:18:39;;;;;;;7.28;5.55;;;14.80;84.00;;;;;;4998138;28;20022;-64
2023/12/16 12:21:06;;;;;;;9.63;5.43;;;14.90;84.00;;;;;;5015697;28;20066;-64
2023/12/16 12:23:33;;;;;;;8.13;5.53;;;15.10;82.10;;;;;;5015861;28;20036;-64
2023/12/16 12:26:00;;;;;;;9.80;5.82;;;14.80;81.60;;;;;;5015604;28;20017;-64
2023/12/16 12:28:26;;;;;;;8.38;6.38;;;14.20;84.20;;;;;;4997927;28;20032;-64
2023/12/16 12:31:01;;;;;;;13.57;5.90;;;14.00;84.90;;;;;;5015598;28;20038;-63
2023/12/16 12:33:26;;;;;;;7.82;6.00;;;14.20;85.30;;;;;;4998156;28;20026;-63
2023/12/16 12:35:52;;;;;;;7.22;5.68;;;13.90;85.30;;;;;;5015524;28;20084;-63
2023/12/16 12:38:21;;;;;;;9.48;6.32;;;13.70;85.90;;;;;;5015340;28;20030;-64
2023/12/16 12:41:01;;;;;;;8.07;6.15;;;14.00;84.90;;;;;;5015386;28;20084;-63